sensor_id;sensor_type;location;lat;lon;timestamp;P1;durP1;ratioP1;P2;durP2;ratioP2
67092;SDS011;54011;50.772;7.730;2023-06-05T00:01:09;5.60;;;1.90;;
67092;SDS011;54011;50.772;7.730;2023-06-05T00:03:34;7.38;;;2.00;;
67092;SDS011;54011;50.772;7.730;2023-06-05T00:06:02;6.22;;;2.20;;
67092;SDS011;54011;50.772;7.730;2023-06-05T00:08:28;5.05;;;1.92;;
67092;SDS011;54011;50.772;7.730;2023-06-05T00:10:53;4.82;;;2.20;;
67092;SDS011;54011;50.772;7.730;2023-06-05T00:13:19;4.97;;;1.85;;
67092;SDS011;54011;50.772;7.730;2023-06-05T00:15:44;5.57;;;2.40;;
67092;SDS011;54011;50.772;7.730;2023-06-05T00:18:10;4.07;;;2.00;;
67092;SDS011;54011;50.772;7.730;2023-06-05T00:20:37;6.10;;;2.05;;
67092;SDS011;54011;50.772;7.730;2023-06-05T00:23:02;4.15;;;2.00;;
67092;SDS011;54011;50.772;7.730;2023-06-05T00:25:28;5.20;;;1.90;;
67092;SDS011;54011;50.772;7.730;2023-06-05T00:27:53;5.10;;;2.13;;
67092;SDS011;54011;50.772;7.730;2023-06-05T00:30:19;4.50;;;2.03;;
67092;SDS011;54011;50.772;7.730;2023-06-05T00:32:44;5.95;;;2.00;;
67092;SDS011;54011;50.772;7.730;2023-06-05T00:35:10;4.05;;;2.00;;
67092;SDS011;54011;50.772;7.730;2023-06-05T00:37:35;6.03;;;2.13;;
67092;SDS011;54011;50.772;7.730;2023-06-05T00:40:02;4.68;;;2.00;;
67092;SDS011;54011;50.772;7.730;2023-06-05T00:42:30;6.07;;;2.30;;
67092;SDS011;54011;50.772;7.730;2023-06-05T00:44:55;4.50;;;2.25;;
67092;SDS011;54011;50.772;7.730;2023-06-05T00:47:21;4.28;;;2.05;;
67092;SDS011;54011;50.772;7.730;2023-06-05T00:49:47;4.38;;;2.13;;
67092;SDS011;54011;50.772;7.730;2023-06-05T00:52:13;4.35;;;2.10;;
67092;SDS011;54011;50.772;7.730;2023-06-05T00:54:40;4.30;;;2.10;;
67092;SDS011;54011;50.772;7.730;2023-06-05T00:57:05;4.85;;;2.10;;
67092;SDS011;54011;50.772;7.730;2023-06-05T00:59:32;5.60;;;2.20;;
67092;SDS011;54011;50.772;7.730;2023-06-05T01:01:59;4.15;;;1.98;;
67092;SDS011;54011;50.772;7.730;2023-06-05T01:04:26;5.57;;;2.10;;
67092;SDS011;54011;50.772;7.730;2023-06-05T01:06:52;5.05;;;2.40;;
67092;SDS011;54011;50.772;7.730;2023-06-05T01:09:18;3.92;;;2.13;;
67092;SDS011;54011;50.772;7.730;2023-06-05T01:11:52;4.47;;;2.10;;
67092;SDS011;54011;50.772;7.730;2023-06-05T01:14:30;4.80;;;2.35;;
67092;SDS011;54011;50.772;7.730;2023-06-05T01:16:59;6.20;;;2.28;;
67092;SDS011;54011;50.772;7.730;2023-06-05T01:19:27;7.40;;;2.22;;
67092;SDS011;54011;50.772;7.730;2023-06-05T01:21:58;4.93;;;2.10;;
67092;SDS011;54011;50.772;7.730;2023-06-05T01:24:24;5.63;;;2.10;;
67092;SDS011;54011;50.772;7.730;2023-06-05T01:26:55;5.57;;;2.30;;
67092;SDS011;54011;50.772;7.730;2023-06-05T01:29:40;5.13;;;2.00;;
67092;SDS011;54011;50.772;7.730;2023-06-05T01:32:42;8.05;;;2.20;;
67092;SDS011;54011;50.772;7.730;2023-06-05T01:37:52;5.20;;;2.35;;
67092;SDS011;54011;50.772;7.730;2023-06-05T01:40:21;3.85;;;1.90;;
67092;SDS011;54011;50.772;7.730;2023-06-05T01:42:48;4.82;;;2.10;;
67092;SDS011;54011;50.772;7.730;2023-06-05T01:45:15;4.30;;;1.90;;
67092;SDS011;54011;50.772;7.730;2023-06-05T01:47:43;5.00;;;2.20;;
67092;SDS011;54011;50.772;7.730;2023-06-05T01:50:10;4.97;;;2.20;;
67092;SDS011;54011;50.772;7.730;2023-06-05T01:52:38;4.35;;;1.98;;
67092;SDS011;54011;50.772;7.730;2023-06-05T01:55:05;3.90;;;2.00;;
67092;SDS011;54011;50.772;7.730;2023-06-05T01:57:32;7.20;;;2.30;;
67092;SDS011;54011;50.772;7.730;2023-06-05T01:59:59;4.95;;;2.30;;
67092;SDS011;54011;50.772;7.730;2023-06-05T02:02:26;5.65;;;2.40;;
67092;SDS011;54011;50.772;7.730;2023-06-05T02:04:55;5.57;;;2.25;;
67092;SDS011;54011;50.772;7.730;2023-06-05T02:07:24;6.68;;;2.13;;
67092;SDS011;54011;50.772;7.730;2023-06-05T02:09:50;4.60;;;2.10;;
67092;SDS011;54011;50.772;7.730;2023-06-05T02:12:15;6.00;;;2.17;;
67092;SDS011;54011;50.772;7.730;2023-06-05T02:14:41;4.85;;;2.10;;
67092;SDS011;54011;50.772;7.730;2023-06-05T02:17:10;4.85;;;2.35;;
67092;SDS011;54011;50.772;7.730;2023-06-05T02:19:38;7.60;;;2.50;;
67092;SDS011;54011;50.772;7.730;2023-06-05T02:22:04;4.68;;;2.38;;
67092;SDS011;54011;50.772;7.730;2023-06-05T02:24:30;5.05;;;2.20;;
67092;SDS011;54011;50.772;7.730;2023-06-05T02:26:56;5.90;;;2.42;;
67092;SDS011;54011;50.772;7.730;2023-06-05T02:29:22;5.18;;;2.30;;
67092;SDS011;54011;50.772;7.730;2023-06-05T02:31:48;5.45;;;2.20;;
67092;SDS011;54011;50.772;7.730;2023-06-05T02:34:13;4.75;;;2.22;;
67092;SDS011;54011;50.772;7.730;2023-06-05T02:36:39;5.90;;;2.42;;
67092;SDS011;54011;50.772;7.730;2023-06-05T02:39:07;4.35;;;2.10;;
67092;SDS011;54011;50.772;7.730;2023-06-05T02:41:33;4.22;;;2.05;;
67092;SDS011;54011;50.772;7.730;2023-06-05T02:43:59;4.97;;;2.17;;
67092;SDS011;54011;50.772;7.730;2023-06-05T02:46:25;6.28;;;2.25;;
67092;SDS011;54011;50.772;7.730;2023-06-05T02:48:51;5.57;;;2.10;;
67092;SDS011;54011;50.772;7.730;2023-06-05T02:51:17;4.80;;;2.10;;
67092;SDS011;54011;50.772;7.730;2023-06-05T02:53:45;3.75;;;2.03;;
67092;SDS011;54011;50.772;7.730;2023-06-05T02:56:13;8.55;;;2.42;;
67092;SDS011;54011;50.772;7.730;2023-06-05T02:58:40;5.72;;;1.85;;
67092;SDS011;54011;50.772;7.730;2023-06-05T03:01:09;4.10;;;2.15;;
67092;SDS011;54011;50.772;7.730;2023-06-05T03:03:41;4.85;;;2.30;;
67092;SDS011;54011;50.772;7.730;2023-06-05T03:06:07;4.70;;;2.10;;
67092;SDS011;54011;50.772;7.730;2023-06-05T03:08:36;5.70;;;2.13;;
67092;SDS011;54011;50.772;7.730;2023-06-05T03:11:04;3.80;;;2.00;;
67092;SDS011;54011;50.772;7.730;2023-06-05T03:13:30;6.78;;;2.13;;
67092;SDS011;54011;50.772;7.730;2023-06-05T03:15:57;4.22;;;2.20;;
67092;SDS011;54011;50.772;7.730;2023-06-05T03:18:27;4.70;;;2.25;;
67092;SDS011;54011;50.772;7.730;2023-06-05T03:20:56;4.78;;;2.08;;
67092;SDS011;54011;50.772;7.730;2023-06-05T03:23:28;4.57;;;2.05;;
67092;SDS011;54011;50.772;7.730;2023-06-05T03:25:56;5.57;;;2.25;;
67092;SDS011;54011;50.772;7.730;2023-06-05T03:28:23;5.03;;;1.85;;
67092;SDS011;54011;50.772;7.730;2023-06-05T03:30:53;5.77;;;2.20;;
67092;SDS011;54011;50.772;7.730;2023-06-05T03:33:21;12.85;;;2.40;;
67092;SDS011;54011;50.772;7.730;2023-06-05T03:35:49;6.47;;;1.95;;
67092;SDS011;54011;50.772;7.730;2023-06-05T03:38:15;4.53;;;2.13;;
67092;SDS011;54011;50.772;7.730;2023-06-05T03:40:42;5.38;;;2.40;;
67092;SDS011;54011;50.772;7.730;2023-06-05T03:43:11;5.22;;;2.33;;
67092;SDS011;54011;50.772;7.730;2023-06-05T03:45:37;5.18;;;2.45;;
67092;SDS011;54011;50.772;7.730;2023-06-05T03:48:06;6.03;;;2.47;;
67092;SDS011;54011;50.772;7.730;2023-06-05T03:50:35;6.40;;;2.40;;
67092;SDS011;54011;50.772;7.730;2023-06-05T03:53:03;4.75;;;2.30;;
67092;SDS011;54011;50.772;7.730;2023-06-05T03:55:31;5.22;;;2.20;;
67092;SDS011;54011;50.772;7.730;2023-06-05T03:58:02;5.72;;;2.20;;
67092;SDS011;54011;50.772;7.730;2023-06-05T04:00:28;4.18;;;2.20;;
67092;SDS011;54011;50.772;7.730;2023-06-05T04:02:56;3.88;;;2.10;;
67092;SDS011;54011;50.772;7.730;2023-06-05T04:05:23;5.20;;;2.38;;
67092;SDS011;54011;50.772;7.730;2023-06-05T04:07:48;4.85;;;2.60;;
67092;SDS011;54011;50.772;7.730;2023-06-05T04:10:14;5.70;;;2.10;;
67092;SDS011;54011;50.772;7.730;2023-06-05T04:12:39;4.40;;;2.15;;
67092;SDS011;54011;50.772;7.730;2023-06-05T04:15:06;4.80;;;2.53;;
67092;SDS011;54011;50.772;7.730;2023-06-05T04:17:32;4.00;;;1.98;;
67092;SDS011;54011;50.772;7.730;2023-06-05T04:19:58;4.88;;;2.05;;
67092;SDS011;54011;50.772;7.730;2023-06-05T04:22:26;9.10;;;2.67;;
67092;SDS011;54011;50.772;7.730;2023-06-05T04:24:51;6.43;;;2.30;;
67092;SDS011;54011;50.772;7.730;2023-06-05T04:27:17;5.25;;;2.42;;
67092;SDS011;54011;50.772;7.730;2023-06-05T04:29:42;7.05;;;2.50;;
67092;SDS011;54011;50.772;7.730;2023-06-05T04:32:09;6.80;;;2.65;;
67092;SDS011;54011;50.772;7.730;2023-06-05T04:34:35;5.60;;;2.47;;
67092;SDS011;54011;50.772;7.730;2023-06-05T04:37:00;5.68;;;2.60;;
67092;SDS011;54011;50.772;7.730;2023-06-05T04:39:26;5.03;;;2.40;;
67092;SDS011;54011;50.772;7.730;2023-06-05T04:41:52;5.13;;;2.47;;
67092;SDS011;54011;50.772;7.730;2023-06-05T04:46:49;8.32;;;2.30;;
67092;SDS011;54011;50.772;7.730;2023-06-05T04:49:14;8.05;;;2.33;;
67092;SDS011;54011;50.772;7.730;2023-06-05T04:51:41;6.30;;;2.53;;
67092;SDS011;54011;50.772;7.730;2023-06-05T04:54:10;5.30;;;2.47;;
67092;SDS011;54011;50.772;7.730;2023-06-05T04:56:35;4.88;;;2.25;;
67092;SDS011;54011;50.772;7.730;2023-06-05T04:59:02;4.53;;;2.15;;
67092;SDS011;54011;50.772;7.730;2023-06-05T05:01:28;5.53;;;2.28;;
67092;SDS011;54011;50.772;7.730;2023-06-05T05:03:54;5.07;;;2.33;;
67092;SDS011;54011;50.772;7.730;2023-06-05T05:06:20;6.82;;;2.85;;
67092;SDS011;54011;50.772;7.730;2023-06-05T05:08:48;4.35;;;2.25;;
67092;SDS011;54011;50.772;7.730;2023-06-05T05:11:14;6.45;;;2.53;;
67092;SDS011;54011;50.772;7.730;2023-06-05T05:13:40;6.40;;;2.40;;
67092;SDS011;54011;50.772;7.730;2023-06-05T05:16:07;5.70;;;2.20;;
67092;SDS011;54011;50.772;7.730;2023-06-05T05:18:33;5.88;;;2.40;;
67092;SDS011;54011;50.772;7.730;2023-06-05T05:21:03;7.53;;;2.28;;
67092;SDS011;54011;50.772;7.730;2023-06-05T05:23:31;7.53;;;2.35;;
67092;SDS011;54011;50.772;7.730;2023-06-05T05:25:57;4.57;;;2.10;;
67092;SDS011;54011;50.772;7.730;2023-06-05T05:28:22;5.05;;;2.08;;
67092;SDS011;54011;50.772;7.730;2023-06-05T05:30:47;4.93;;;2.13;;
67092;SDS011;54011;50.772;7.730;2023-06-05T05:33:13;5.20;;;2.38;;
67092;SDS011;54011;50.772;7.730;2023-06-05T05:35:40;5.18;;;2.45;;
67092;SDS011;54011;50.772;7.730;2023-06-05T05:38:06;6.80;;;2.60;;
67092;SDS011;54011;50.772;7.730;2023-06-05T05:40:32;5.68;;;2.17;;
67092;SDS011;54011;50.772;7.730;2023-06-05T05:42:57;4.22;;;2.25;;
67092;SDS011;54011;50.772;7.730;2023-06-05T05:45:23;6.35;;;2.40;;
67092;SDS011;54011;50.772;7.730;2023-06-05T05:47:49;5.45;;;2.60;;
67092;SDS011;54011;50.772;7.730;2023-06-05T05:50:14;6.57;;;2.20;;
67092;SDS011;54011;50.772;7.730;2023-06-05T05:52:40;4.30;;;2.35;;
67092;SDS011;54011;50.772;7.730;2023-06-05T05:55:08;5.68;;;1.83;;
67092;SDS011;54011;50.772;7.730;2023-06-05T05:57:33;5.50;;;2.50;;
67092;SDS011;54011;50.772;7.730;2023-06-05T05:59:59;5.10;;;2.30;;
67092;SDS011;54011;50.772;7.730;2023-06-05T06:02:25;4.70;;;2.05;;
67092;SDS011;54011;50.772;7.730;2023-06-05T06:04:50;6.78;;;2.70;;
67092;SDS011;54011;50.772;7.730;2023-06-05T06:07:16;4.65;;;2.22;;
67092;SDS011;54011;50.772;7.730;2023-06-05T06:09:41;5.90;;;2.35;;
67092;SDS011;54011;50.772;7.730;2023-06-05T06:12:07;7.40;;;2.40;;
67092;SDS011;54011;50.772;7.730;2023-06-05T06:14:33;7.70;;;2.30;;
67092;SDS011;54011;50.772;7.730;2023-06-05T06:17:00;5.80;;;2.33;;
67092;SDS011;54011;50.772;7.730;2023-06-05T06:19:26;6.10;;;2.40;;
67092;SDS011;54011;50.772;7.730;2023-06-05T06:21:53;5.82;;;2.17;;
67092;SDS011;54011;50.772;7.730;2023-06-05T06:24:20;5.35;;;2.10;;
67092;SDS011;54011;50.772;7.730;2023-06-05T06:26:46;9.18;;;2.53;;
67092;SDS011;54011;50.772;7.730;2023-06-05T06:29:18;4.45;;;2.08;;
67092;SDS011;54011;50.772;7.730;2023-06-05T06:31:45;4.53;;;1.73;;
67092;SDS011;54011;50.772;7.730;2023-06-05T06:34:11;5.90;;;2.17;;
67092;SDS011;54011;50.772;7.730;2023-06-05T06:36:37;7.97;;;1.98;;
67092;SDS011;54011;50.772;7.730;2023-06-05T06:39:06;8.77;;;2.55;;
67092;SDS011;54011;50.772;7.730;2023-06-05T06:41:33;5.93;;;2.30;;
67092;SDS011;54011;50.772;7.730;2023-06-05T06:44:00;4.15;;;2.03;;
67092;SDS011;54011;50.772;7.730;2023-06-05T06:46:25;5.38;;;2.25;;
67092;SDS011;54011;50.772;7.730;2023-06-05T06:48:51;7.43;;;2.30;;
67092;SDS011;54011;50.772;7.730;2023-06-05T06:51:17;7.28;;;2.53;;
67092;SDS011;54011;50.772;7.730;2023-06-05T06:53:43;5.07;;;2.25;;
67092;SDS011;54011;50.772;7.730;2023-06-05T06:56:08;5.78;;;2.20;;
67092;SDS011;54011;50.772;7.730;2023-06-05T06:58:34;15.15;;;2.60;;
67092;SDS011;54011;50.772;7.730;2023-06-05T07:00:59;5.13;;;2.28;;
67092;SDS011;54011;50.772;7.730;2023-06-05T07:03:25;8.07;;;2.30;;
67092;SDS011;54011;50.772;7.730;2023-06-05T07:05:50;7.32;;;2.10;;
67092;SDS011;54011;50.772;7.730;2023-06-05T07:08:16;6.80;;;2.05;;
67092;SDS011;54011;50.772;7.730;2023-06-05T07:10:41;5.40;;;2.30;;
67092;SDS011;54011;50.772;7.730;2023-06-05T07:13:07;7.43;;;2.00;;
67092;SDS011;54011;50.772;7.730;2023-06-05T07:15:33;6.32;;;2.03;;
67092;SDS011;54011;50.772;7.730;2023-06-05T07:17:58;6.07;;;2.20;;
67092;SDS011;54011;50.772;7.730;2023-06-05T07:20:25;4.80;;;2.13;;
67092;SDS011;54011;50.772;7.730;2023-06-05T07:22:50;6.60;;;2.20;;
67092;SDS011;54011;50.772;7.730;2023-06-05T07:25:16;8.68;;;2.63;;
67092;SDS011;54011;50.772;7.730;2023-06-05T07:27:43;7.90;;;2.42;;
67092;SDS011;54011;50.772;7.730;2023-06-05T07:30:09;7.20;;;2.40;;
67092;SDS011;54011;50.772;7.730;2023-06-05T07:32:35;5.72;;;2.33;;
67092;SDS011;54011;50.772;7.730;2023-06-05T07:35:02;6.20;;;2.13;;
67092;SDS011;54011;50.772;7.730;2023-06-05T07:37:27;6.43;;;2.25;;
67092;SDS011;54011;50.772;7.730;2023-06-05T07:39:53;7.55;;;2.88;;
67092;SDS011;54011;50.772;7.730;2023-06-05T07:42:19;5.72;;;2.20;;
67092;SDS011;54011;50.772;7.730;2023-06-05T07:44:45;6.97;;;2.30;;
67092;SDS011;54011;50.772;7.730;2023-06-05T07:47:11;7.80;;;2.33;;
67092;SDS011;54011;50.772;7.730;2023-06-05T07:49:36;6.03;;;2.40;;
67092;SDS011;54011;50.772;7.730;2023-06-05T07:52:02;8.27;;;2.60;;
67092;SDS011;54011;50.772;7.730;2023-06-05T07:54:27;5.25;;;2.20;;
67092;SDS011;54011;50.772;7.730;2023-06-05T07:56:53;7.32;;;2.28;;
67092;SDS011;54011;50.772;7.730;2023-06-05T07:59:19;5.40;;;2.20;;
67092;SDS011;54011;50.772;7.730;2023-06-05T08:01:49;5.65;;;2.10;;
67092;SDS011;54011;50.772;7.730;2023-06-05T08:04:16;6.30;;;2.15;;
67092;SDS011;54011;50.772;7.730;2023-06-05T08:06:43;4.05;;;2.17;;
67092;SDS011;54011;50.772;7.730;2023-06-05T08:09:08;7.82;;;2.38;;
67092;SDS011;54011;50.772;7.730;2023-06-05T08:11:37;4.93;;;1.95;;
67092;SDS011;54011;50.772;7.730;2023-06-05T08:14:04;4.13;;;1.90;;
67092;SDS011;54011;50.772;7.730;2023-06-05T08:16:31;5.20;;;1.98;;
67092;SDS011;54011;50.772;7.730;2023-06-05T08:18:56;5.53;;;1.90;;
67092;SDS011;54011;50.772;7.730;2023-06-05T08:21:22;5.13;;;2.10;;
67092;SDS011;54011;50.772;7.730;2023-06-05T08:23:47;9.27;;;2.10;;
67092;SDS011;54011;50.772;7.730;2023-06-05T08:26:13;4.63;;;1.80;;
67092;SDS011;54011;50.772;7.730;2023-06-05T08:28:39;8.50;;;2.00;;
67092;SDS011;54011;50.772;7.730;2023-06-05T08:31:07;6.57;;;1.98;;
67092;SDS011;54011;50.772;7.730;2023-06-05T08:33:33;7.50;;;2.10;;
67092;SDS011;54011;50.772;7.730;2023-06-05T08:36:03;5.18;;;1.77;;
67092;SDS011;54011;50.772;7.730;2023-06-05T08:38:29;7.90;;;1.98;;
67092;SDS011;54011;50.772;7.730;2023-06-05T08:40:56;4.75;;;2.03;;
67092;SDS011;54011;50.772;7.730;2023-06-05T08:43:27;7.90;;;2.28;;
67092;SDS011;54011;50.772;7.730;2023-06-05T08:45:53;4.65;;;2.10;;
67092;SDS011;54011;50.772;7.730;2023-06-05T08:48:21;4.38;;;2.10;;
67092;SDS011;54011;50.772;7.730;2023-06-05T08:50:50;7.38;;;2.10;;
67092;SDS011;54011;50.772;7.730;2023-06-05T08:53:17;6.90;;;2.00;;
67092;SDS011;54011;50.772;7.730;2023-06-05T08:55:46;7.75;;;1.80;;
67092;SDS011;54011;50.772;7.730;2023-06-05T08:58:13;6.05;;;1.83;;
67092;SDS011;54011;50.772;7.730;2023-06-05T09:00:39;4.90;;;2.00;;
67092;SDS011;54011;50.772;7.730;2023-06-05T09:03:04;5.47;;;2.08;;
67092;SDS011;54011;50.772;7.730;2023-06-05T09:05:31;4.68;;;1.85;;
67092;SDS011;54011;50.772;7.730;2023-06-05T09:07:57;4.50;;;2.00;;
67092;SDS011;54011;50.772;7.730;2023-06-05T09:10:24;6.60;;;2.40;;
67092;SDS011;54011;50.772;7.730;2023-06-05T09:12:58;4.28;;;1.92;;
67092;SDS011;54011;50.772;7.730;2023-06-05T09:15:25;5.03;;;1.77;;
67092;SDS011;54011;50.772;7.730;2023-06-05T09:18:03;6.47;;;2.70;;
67092;SDS011;54011;50.772;7.730;2023-06-05T09:20:33;5.53;;;1.88;;
67092;SDS011;54011;50.772;7.730;2023-06-05T09:23:00;4.78;;;1.80;;
67092;SDS011;54011;50.772;7.730;2023-06-05T09:25:43;6.93;;;1.60;;
67092;SDS011;54011;50.772;7.730;2023-06-05T09:28:13;7.78;;;1.70;;
67092;SDS011;54011;50.772;7.730;2023-06-05T09:30:55;3.83;;;1.60;;
67092;SDS011;54011;50.772;7.730;2023-06-05T09:33:26;4.18;;;1.80;;
67092;SDS011;54011;50.772;7.730;2023-06-05T09:38:32;4.40;;;1.80;;
67092;SDS011;54011;50.772;7.730;2023-06-05T09:41:05;3.92;;;1.50;;
67092;SDS011;54011;50.772;7.730;2023-06-05T09:43:31;4.22;;;1.50;;
67092;SDS011;54011;50.772;7.730;2023-06-05T09:45:57;8.18;;;1.83;;
67092;SDS011;54011;50.772;7.730;2023-06-05T09:48:23;6.22;;;2.10;;
67092;SDS011;54011;50.772;7.730;2023-06-05T09:50:51;5.80;;;1.40;;
67092;SDS011;54011;50.772;7.730;2023-06-05T09:53:17;6.10;;;1.80;;
67092;SDS011;54011;50.772;7.730;2023-06-05T09:55:45;4.53;;;1.80;;
67092;SDS011;54011;50.772;7.730;2023-06-05T09:58:13;6.13;;;1.85;;
67092;SDS011;54011;50.772;7.730;2023-06-05T10:00:40;4.05;;;1.80;;
67092;SDS011;54011;50.772;7.730;2023-06-05T10:03:12;4.00;;;1.52;;
67092;SDS011;54011;50.772;7.730;2023-06-05T10:05:40;4.05;;;1.50;;
67092;SDS011;54011;50.772;7.730;2023-06-05T10:08:07;5.05;;;1.40;;
67092;SDS011;54011;50.772;7.730;2023-06-05T10:10:34;4.88;;;1.50;;
67092;SDS011;54011;50.772;7.730;2023-06-05T10:13:01;5.18;;;1.70;;
67092;SDS011;54011;50.772;7.730;2023-06-05T10:15:27;6.53;;;1.98;;
67092;SDS011;54011;50.772;7.730;2023-06-05T10:17:53;7.38;;;1.70;;
67092;SDS011;54011;50.772;7.730;2023-06-05T10:20:21;5.38;;;1.77;;
67092;SDS011;54011;50.772;7.730;2023-06-05T10:22:46;4.32;;;1.58;;
67092;SDS011;54011;50.772;7.730;2023-06-05T10:25:14;4.55;;;1.70;;
67092;SDS011;54011;50.772;7.730;2023-06-05T10:30:55;6.90;;;1.87;;
67092;SDS011;54011;50.772;7.730;2023-06-05T10:33:45;3.90;;;1.70;;
67092;SDS011;54011;50.772;7.730;2023-06-05T10:39:14;6.07;;;1.70;;
67092;SDS011;54011;50.772;7.730;2023-06-05T10:41:39;8.82;;;1.83;;
67092;SDS011;54011;50.772;7.730;2023-06-05T10:44:05;5.90;;;1.70;;
67092;SDS011;54011;50.772;7.730;2023-06-05T10:51:37;5.70;;;1.75;;
67092;SDS011;54011;50.772;7.730;2023-06-05T10:54:07;5.78;;;2.10;;
67092;SDS011;54011;50.772;7.730;2023-06-05T10:57:01;5.20;;;1.67;;
67092;SDS011;54011;50.772;7.730;2023-06-05T10:59:38;4.78;;;1.70;;
67092;SDS011;54011;50.772;7.730;2023-06-05T11:07:28;3.80;;;1.50;;
67092;SDS011;54011;50.772;7.730;2023-06-05T11:12:26;4.30;;;1.80;;
67092;SDS011;54011;50.772;7.730;2023-06-05T11:14:52;5.80;;;1.58;;
67092;SDS011;54011;50.772;7.730;2023-06-05T11:19:53;3.72;;;1.48;;
67092;SDS011;54011;50.772;7.730;2023-06-05T11:22:19;4.63;;;1.63;;
67092;SDS011;54011;50.772;7.730;2023-06-05T11:24:45;8.82;;;1.63;;
67092;SDS011;54011;50.772;7.730;2023-06-05T11:30:50;5.70;;;1.70;;
67092;SDS011;54011;50.772;7.730;2023-06-05T11:35:36;3.90;;;1.67;;
67092;SDS011;54011;50.772;7.730;2023-06-05T11:38:09;3.72;;;1.73;;
67092;SDS011;54011;50.772;7.730;2023-06-05T11:40:45;5.80;;;1.70;;
67092;SDS011;54011;50.772;7.730;2023-06-05T11:46:08;3.92;;;1.70;;
67092;SDS011;54011;50.772;7.730;2023-06-05T11:48:34;6.38;;;1.70;;
67092;SDS011;54011;50.772;7.730;2023-06-05T11:51:03;4.95;;;1.60;;
67092;SDS011;54011;50.772;7.730;2023-06-05T11:53:31;3.95;;;1.80;;
67092;SDS011;54011;50.772;7.730;2023-06-05T11:55:58;4.22;;;1.67;;
67092;SDS011;54011;50.772;7.730;2023-06-05T11:58:29;3.13;;;1.48;;
67092;SDS011;54011;50.772;7.730;2023-06-05T12:03:31;5.68;;;1.83;;
67092;SDS011;54011;50.772;7.730;2023-06-05T12:06:00;5.07;;;1.75;;
67092;SDS011;54011;50.772;7.730;2023-06-05T12:08:28;8.10;;;2.05;;
67092;SDS011;54011;50.772;7.730;2023-06-05T12:11:00;4.15;;;1.70;;
67092;SDS011;54011;50.772;7.730;2023-06-05T12:16:15;5.15;;;1.77;;
67092;SDS011;54011;50.772;7.730;2023-06-05T12:18:42;3.58;;;1.60;;
67092;SDS011;54011;50.772;7.730;2023-06-05T12:21:18;6.03;;;1.60;;
67092;SDS011;54011;50.772;7.730;2023-06-05T12:23:48;4.78;;;1.70;;
67092;SDS011;54011;50.772;7.730;2023-06-05T12:26:14;6.07;;;1.70;;
67092;SDS011;54011;50.772;7.730;2023-06-05T12:28:41;4.35;;;1.70;;
67092;SDS011;54011;50.772;7.730;2023-06-05T12:31:08;4.25;;;1.75;;
67092;SDS011;54011;50.772;7.730;2023-06-05T12:33:33;4.32;;;1.83;;
67092;SDS011;54011;50.772;7.730;2023-06-05T12:36:11;4.68;;;1.70;;
67092;SDS011;54011;50.772;7.730;2023-06-05T12:38:38;5.13;;;1.75;;
67092;SDS011;54011;50.772;7.730;2023-06-05T12:41:05;3.53;;;1.70;;
67092;SDS011;54011;50.772;7.730;2023-06-05T12:43:32;4.80;;;1.70;;
67092;SDS011;54011;50.772;7.730;2023-06-05T12:45:58;4.18;;;1.77;;
67092;SDS011;54011;50.772;7.730;2023-06-05T12:48:23;3.70;;;1.83;;
67092;SDS011;54011;50.772;7.730;2023-06-05T12:50:49;8.35;;;2.40;;
67092;SDS011;54011;50.772;7.730;2023-06-05T12:53:16;4.50;;;1.90;;
67092;SDS011;54011;50.772;7.730;2023-06-05T12:55:41;5.63;;;1.90;;
67092;SDS011;54011;50.772;7.730;2023-06-05T12:58:06;3.90;;;1.75;;
67092;SDS011;54011;50.772;7.730;2023-06-05T13:00:32;4.43;;;1.75;;
67092;SDS011;54011;50.772;7.730;2023-06-05T13:02:59;4.95;;;1.80;;
67092;SDS011;54011;50.772;7.730;2023-06-05T13:05:24;5.45;;;1.70;;
67092;SDS011;54011;50.772;7.730;2023-06-05T13:07:50;5.65;;;1.80;;
67092;SDS011;54011;50.772;7.730;2023-06-05T13:10:16;5.32;;;1.92;;
67092;SDS011;54011;50.772;7.730;2023-06-05T13:12:42;5.47;;;1.65;;
67092;SDS011;54011;50.772;7.730;2023-06-05T13:15:08;3.55;;;1.60;;
67092;SDS011;54011;50.772;7.730;2023-06-05T13:17:36;3.95;;;1.60;;
67092;SDS011;54011;50.772;7.730;2023-06-05T13:20:03;4.20;;;1.80;;
67092;SDS011;54011;50.772;7.730;2023-06-05T13:22:39;5.13;;;1.55;;
67092;SDS011;54011;50.772;7.730;2023-06-05T13:25:06;5.63;;;1.65;;
67092;SDS011;54011;50.772;7.730;2023-06-05T13:27:33;3.80;;;1.70;;
67092;SDS011;54011;50.772;7.730;2023-06-05T13:29:58;7.07;;;1.70;;
67092;SDS011;54011;50.772;7.730;2023-06-05T13:32:24;5.07;;;1.90;;
67092;SDS011;54011;50.772;7.730;2023-06-05T13:34:50;3.65;;;1.67;;
67092;SDS011;54011;50.772;7.730;2023-06-05T13:37:15;5.47;;;1.83;;
67092;SDS011;54011;50.772;7.730;2023-06-05T13:39:41;4.22;;;1.80;;
67092;SDS011;54011;50.772;7.730;2023-06-05T13:42:06;3.28;;;1.58;;
67092;SDS011;54011;50.772;7.730;2023-06-05T13:44:32;5.82;;;1.70;;
67092;SDS011;54011;50.772;7.730;2023-06-05T13:46:57;3.65;;;1.42;;
67092;SDS011;54011;50.772;7.730;2023-06-05T13:49:22;6.50;;;1.90;;
67092;SDS011;54011;50.772;7.730;2023-06-05T13:51:51;4.00;;;1.50;;
67092;SDS011;54011;50.772;7.730;2023-06-05T13:54:16;4.68;;;1.70;;
67092;SDS011;54011;50.772;7.730;2023-06-05T13:56:42;7.55;;;2.05;;
67092;SDS011;54011;50.772;7.730;2023-06-05T13:59:07;3.45;;;1.60;;
67092;SDS011;54011;50.772;7.730;2023-06-05T14:01:33;5.10;;;1.90;;
67092;SDS011;54011;50.772;7.730;2023-06-05T14:03:58;4.07;;;1.88;;
67092;SDS011;54011;50.772;7.730;2023-06-05T14:06:23;5.88;;;1.65;;
67092;SDS011;54011;50.772;7.730;2023-06-05T14:08:49;5.15;;;1.85;;
67092;SDS011;54011;50.772;7.730;2023-06-05T14:11:14;5.05;;;1.50;;
67092;SDS011;54011;50.772;7.730;2023-06-05T14:13:40;5.35;;;2.00;;
67092;SDS011;54011;50.772;7.730;2023-06-05T14:16:06;3.83;;;1.92;;
67092;SDS011;54011;50.772;7.730;2023-06-05T14:18:35;3.67;;;1.70;;
67092;SDS011;54011;50.772;7.730;2023-06-05T14:21:01;4.20;;;1.90;;
67092;SDS011;54011;50.772;7.730;2023-06-05T14:23:26;3.47;;;1.70;;
67092;SDS011;54011;50.772;7.730;2023-06-05T14:25:52;4.75;;;1.77;;
67092;SDS011;54011;50.772;7.730;2023-06-05T14:28:17;6.72;;;1.98;;
67092;SDS011;54011;50.772;7.730;2023-06-05T14:30:45;5.03;;;1.70;;
67092;SDS011;54011;50.772;7.730;2023-06-05T14:33:11;6.20;;;2.00;;
67092;SDS011;54011;50.772;7.730;2023-06-05T14:35:36;3.75;;;1.60;;
67092;SDS011;54011;50.772;7.730;2023-06-05T14:38:02;4.20;;;1.55;;
67092;SDS011;54011;50.772;7.730;2023-06-05T14:40:27;5.00;;;1.70;;
67092;SDS011;54011;50.772;7.730;2023-06-05T14:42:53;6.25;;;1.80;;
67092;SDS011;54011;50.772;7.730;2023-06-05T14:45:18;4.38;;;1.70;;
67092;SDS011;54011;50.772;7.730;2023-06-05T14:47:43;3.38;;;1.67;;
67092;SDS011;54011;50.772;7.730;2023-06-05T14:50:10;3.83;;;1.83;;
67092;SDS011;54011;50.772;7.730;2023-06-05T14:52:36;5.03;;;1.73;;
67092;SDS011;54011;50.772;7.730;2023-06-05T14:55:02;4.05;;;1.60;;
67092;SDS011;54011;50.772;7.730;2023-06-05T14:57:28;3.95;;;1.83;;
67092;SDS011;54011;50.772;7.730;2023-06-05T14:59:57;4.70;;;2.13;;
67092;SDS011;54011;50.772;7.730;2023-06-05T15:02:23;4.82;;;1.73;;
67092;SDS011;54011;50.772;7.730;2023-06-05T15:04:49;4.15;;;1.70;;
67092;SDS011;54011;50.772;7.730;2023-06-05T15:07:17;4.53;;;1.63;;
67092;SDS011;54011;50.772;7.730;2023-06-05T15:09:45;3.92;;;1.70;;
67092;SDS011;54011;50.772;7.730;2023-06-05T15:12:11;4.95;;;1.90;;
67092;SDS011;54011;50.772;7.730;2023-06-05T15:14:36;5.28;;;1.70;;
67092;SDS011;54011;50.772;7.730;2023-06-05T15:17:02;8.15;;;1.90;;
67092;SDS011;54011;50.772;7.730;2023-06-05T15:19:27;7.25;;;1.70;;
67092;SDS011;54011;50.772;7.730;2023-06-05T15:21:53;6.85;;;2.25;;
67092;SDS011;54011;50.772;7.730;2023-06-05T15:24:18;5.25;;;1.60;;
67092;SDS011;54011;50.772;7.730;2023-06-05T15:26:44;5.60;;;1.88;;
67092;SDS011;54011;50.772;7.730;2023-06-05T15:29:09;5.47;;;1.80;;
67092;SDS011;54011;50.772;7.730;2023-06-05T15:31:35;5.97;;;2.00;;